Time;durP1;ratioP1;P1;durP2;ratioP2;P2;SDS_P1;SDS_P2;PMS_P1;PMS_P2;Temp;Humidity;BMP_temperature;BMP_pressure;BME280_temperature;BME280_humidity;BME280_pressure;Samples;Min_cycle;Max_cycle;Signal;HPM_P1;HPM_P2
2020/12/21 00:01:39;;;;;;;11.38;2.72;;;4.80;99.90;;;;;;5046424;28;20060;-96
2020/12/21 00:04:05;;;;;;;18.98;3.78;;;4.80;99.90;;;;;;5027821;28;20041;-95
2020/12/21 00:06:33;;;;;;;16.70;3.08;;;4.80;99.90;;;;;;5031816;28;20016;-96
2020/12/21 00:09:50;;;;;;;17.33;2.20;;;4.80;99.90;;;;;;5032807;28;20043;-96
2020/12/21 00:12:36;;;;;;;6.90;2.10;;;4.80;99.90;;;;;;5055140;28;20085;-96
2020/12/21 00:15:05;;;;;;;10.15;2.28;;;4.80;99.90;;;;;;5032683;28;20041;-96
2020/12/21 00:17:33;;;;;;;6.13;2.78;;;4.80;99.90;;;;;;5046529;28;20034;-96
2020/12/21 00:20:05;;;;;;;16.17;2.65;;;4.80;99.90;;;;;;5031713;28;20059;-96
2020/12/21 00:22:32;;;;;;;12.63;1.95;;;4.80;99.90;;;;;;5029540;28;20037;-96
2020/12/21 00:24:58;;;;;;;11.82;2.58;;;4.80;99.90;;;;;;5039399;28;20113;-95
2020/12/21 00:27:24;;;;;;;11.82;2.20;;;4.90;99.90;;;;;;5023955;28;20116;-96
2020/12/21 00:29:50;;;;;;;11.73;2.00;;;4.80;99.90;;;;;;5025895;28;20034;-96
2020/12/21 00:32:16;;;;;;;6.53;2.28;;;4.80;99.90;;;;;;5023816;28;20037;-96
2020/12/21 00:34:41;;;;;;;16.13;3.20;;;4.90;99.90;;;;;;5042535;28;20037;-96
2020/12/21 00:37:07;;;;;;;10.77;2.53;;;4.80;99.90;;;;;;5024508;28;20029;-95
2020/12/21 00:39:33;;;;;;;8.52;2.05;;;4.90;99.90;;;;;;5022781;28;20075;-96
2020/12/21 00:41:59;;;;;;;10.13;1.92;;;4.80;99.90;;;;;;5019527;28;20030;-95
2020/12/21 00:44:28;;;;;;;14.07;2.42;;;4.80;99.90;;;;;;5025237;28;20029;-96
2020/12/21 00:46:54;;;;;;;14.52;2.13;;;4.90;99.90;;;;;;5022818;28;20053;-96
2020/12/21 00:49:20;;;;;;;12.13;2.15;;;4.90;99.90;;;;;;5024954;28;20061;-96
2020/12/21 00:51:46;;;;;;;11.48;2.30;;;4.90;99.90;;;;;;5021717;28;20077;-96
2020/12/21 00:54:12;;;;;;;11.35;2.90;;;4.90;99.90;;;;;;5019509;28;20091;-96
2020/12/21 00:56:38;;;;;;;9.18;2.58;;;4.90;99.90;;;;;;5023663;28;20017;-96
2020/12/21 00:59:04;;;;;;;27.48;2.38;;;4.90;99.90;;;;;;5023484;28;20037;-96
2020/12/21 01:01:30;;;;;;;13.77;2.15;;;4.90;99.90;;;;;;5024531;28;20024;-96
2020/12/21 01:03:57;;;;;;;12.02;2.92;;;4.90;99.90;;;;;;5022363;28;20029;-95
2020/12/21 01:06:26;;;;;;;14.38;1.88;;;4.90;99.90;;;;;;5021395;28;20025;-96
2020/12/21 01:08:58;;;;;;;13.95;2.05;;;4.90;99.90;;;;;;5026833;28;20041;-96
2020/12/21 01:11:29;;;;;;;19.25;3.63;;;5.00;99.90;;;;;;5006216;28;20029;-96
2020/12/21 01:13:56;;;;;;;10.65;1.77;;;5.00;99.90;;;;;;5025297;28;20033;-96
2020/12/21 01:16:22;;;;;;;22.15;2.38;;;5.00;99.90;;;;;;5024143;28;20048;-95
2020/12/21 01:18:49;;;;;;;16.15;2.80;;;5.00;99.90;;;;;;5020932;28;20033;-96
2020/12/21 01:21:31;;;;;;;12.32;1.90;;;5.00;99.90;;;;;;5021389;28;20478;-96
2020/12/21 01:23:59;;;;;;;14.25;2.08;;;5.00;99.90;;;;;;5021059;28;20036;-96
2020/12/21 01:26:26;;;;;;;15.70;2.15;;;5.00;99.90;;;;;;5044931;28;20026;-96
2020/12/21 01:28:56;;;;;;;12.07;2.00;;;5.00;99.90;;;;;;5036391;28;20033;-96
2020/12/21 01:31:23;;;;;;;11.95;2.30;;;5.00;99.90;;;;;;5039206;28;20022;-96
2020/12/21 01:33:55;;;;;;;16.85;3.33;;;5.10;99.90;;;;;;5037938;28;20026;-95
2020/12/21 01:36:23;;;;;;;13.57;2.50;;;5.10;99.90;;;;;;5038653;28;20026;-96
2020/12/21 01:38:51;;;;;;;14.57;2.92;;;5.10;99.90;;;;;;5035791;28;20024;-96
2020/12/21 01:41:16;;;;;;;14.38;2.47;;;5.10;99.90;;;;;;5024412;28;20037;-96
2020/12/21 01:43:42;;;;;;;15.38;2.85;;;5.10;99.90;;;;;;5021965;28;20065;-96
2020/12/21 01:46:14;;;;;;;17.40;2.80;;;5.10;99.90;;;;;;5036357;28;20133;-96
2020/12/21 01:48:43;;;;;;;18.55;3.40;;;5.00;99.90;;;;;;5018760;28;20030;-95
2020/12/21 01:51:13;;;;;;;13.73;2.70;;;5.00;99.90;;;;;;5019744;28;20056;-96
2020/12/21 01:53:40;;;;;;;31.77;4.68;;;5.00;99.90;;;;;;5019542;28;20040;-96
2020/12/21 01:56:06;;;;;;;15.40;2.90;;;4.90;99.90;;;;;;5020222;28;20053;-96
2020/12/21 01:58:32;;;;;;;13.73;3.83;;;4.80;99.90;;;;;;5018918;28;20030;-96
2020/12/21 02:01:02;;;;;;;11.68;3.17;;;4.80;99.90;;;;;;5019045;28;20045;-96
2020/12/21 02:03:28;;;;;;;11.10;2.97;;;4.80;99.90;;;;;;5018054;28;20084;-96
2020/12/21 02:05:54;;;;;;;8.63;4.07;;;4.70;99.90;;;;;;5018741;28;20018;-96
2020/12/21 02:08:20;;;;;;;19.83;3.47;;;4.70;99.90;;;;;;5018886;28;20030;-96
2020/12/21 02:10:47;;;;;;;15.02;3.33;;;4.70;99.90;;;;;;5021983;28;20024;-95
2020/12/21 02:13:15;;;;;;;13.13;2.33;;;4.70;99.90;;;;;;5024054;28;20124;-96
2020/12/21 02:15:41;;;;;;;21.20;3.65;;;4.60;99.90;;;;;;5022800;28;20036;-96
2020/12/21 02:18:07;;;;;;;13.80;3.30;;;4.60;99.90;;;;;;5038551;28;20017;-95
2020/12/21 02:20:33;;;;;;;17.45;3.63;;;4.60;99.90;;;;;;5039464;28;20041;-96
2020/12/21 02:22:59;;;;;;;11.98;3.67;;;4.60;99.90;;;;;;5039763;28;20056;-96
2020/12/21 02:25:25;;;;;;;17.83;3.92;;;4.60;99.90;;;;;;5040101;28;20048;-95
2020/12/21 02:27:51;;;;;;;9.98;2.90;;;4.60;99.90;;;;;;5034123;28;20026;-95
2020/12/21 02:30:17;;;;;;;13.02;3.70;;;4.50;99.90;;;;;;5031044;28;20022;-96
2020/12/21 02:32:43;;;;;;;13.60;3.45;;;4.50;99.90;;;;;;5031492;28;20052;-95
2020/12/21 02:35:10;;;;;;;18.40;3.50;;;4.50;99.90;;;;;;5031393;28;20041;-96
2020/12/21 02:37:36;;;;;;;13.63;3.22;;;4.50;99.90;;;;;;5030174;28;20041;-96
2020/12/21 02:40:04;;;;;;;18.80;3.58;;;4.50;99.90;;;;;;5026777;28;20030;-96
2020/12/21 02:42:32;;;;;;;11.82;3.13;;;4.50;99.90;;;;;;5028079;28;20475;-96
2020/12/21 02:44:58;;;;;;;21.95;3.83;;;4.40;99.90;;;;;;5030144;28;20025;-96
2020/12/21 02:47:23;;;;;;;10.60;3.75;;;4.40;99.90;;;;;;5026791;28;20080;-96
2020/12/21 02:49:51;;;;;;;14.52;3.65;;;4.40;99.90;;;;;;5026372;28;20056;-96
2020/12/21 02:52:16;;;;;;;13.45;3.00;;;4.40;99.90;;;;;;5028768;28;20042;-96
2020/12/21 02:54:43;;;;;;;13.07;3.10;;;4.30;99.90;;;;;;5024726;28;20124;-96
2020/12/21 02:57:09;;;;;;;20.55;5.72;;;4.40;99.90;;;;;;5023790;28;20029;-96
2020/12/21 02:59:36;;;;;;;12.25;3.78;;;4.30;99.90;;;;;;5021814;28;20044;-96
2020/12/21 03:02:01;;;;;;;15.23;3.80;;;4.40;99.90;;;;;;5022677;28;20025;-96
2020/12/21 03:04:33;;;;;;;20.02;3.60;;;4.30;99.90;;;;;;5022744;28;20108;-96
2020/12/21 03:07:00;;;;;;;18.40;4.07;;;4.30;99.90;;;;;;5023547;28;20044;-95
2020/12/21 03:09:26;;;;;;;18.85;5.40;;;4.30;99.90;;;;;;5021882;28;20027;-96
2020/12/21 03:12:04;;;;;;;13.50;3.20;;;4.40;99.90;;;;;;5022766;28;20120;-96
2020/12/21 03:14:30;;;;;;;15.55;3.15;;;4.40;99.90;;;;;;5021179;28;20124;-95
2020/12/21 03:16:55;;;;;;;12.60;3.38;;;4.40;99.90;;;;;;5023076;28;20025;-96
2020/12/21 03:19:21;;;;;;;17.27;3.80;;;4.40;99.90;;;;;;5026180;28;20029;-96
2020/12/21 03:21:47;;;;;;;27.40;3.80;;;4.30;99.90;;;;;;5023968;28;20030;-94
2020/12/21 03:24:13;;;;;;;21.98;3.78;;;4.40;99.90;;;;;;5023393;28;20033;-95
2020/12/21 03:26:39;;;;;;;12.00;3.28;;;4.40;99.90;;;;;;5021978;28;20422;-96
2020/12/21 03:29:05;;;;;;;25.02;3.65;;;4.40;99.90;;;;;;5026132;28;20410;-96
2020/12/21 03:31:30;;;;;;;21.98;4.57;;;4.50;99.90;;;;;;5025829;28;20026;-96
2020/12/21 03:33:56;;;;;;;20.02;3.70;;;4.40;99.90;;;;;;5022120;28;20044;-96
2020/12/21 03:36:22;;;;;;;16.85;4.60;;;4.40;99.90;;;;;;5023212;28;20064;-96
2020/12/21 03:38:48;;;;;;;7.10;3.28;;;4.40;99.90;;;;;;5022759;28;20029;-95
2020/12/21 03:41:13;;;;;;;24.35;4.90;;;4.40;99.90;;;;;;5020506;28;20490;-96
2020/12/21 03:43:41;;;;;;;17.45;5.28;;;4.40;99.90;;;;;;5020583;28;20127;-96
2020/12/21 03:46:07;;;;;;;19.98;5.22;;;4.40;99.90;;;;;;5023945;28;20030;-96
2020/12/21 03:48:35;;;;;;;21.92;5.10;;;4.40;99.90;;;;;;5045138;28;20108;-96
2020/12/21 03:51:03;;;;;;;11.45;4.20;;;4.40;99.90;;;;;;5011374;28;20050;-96
2020/12/21 03:53:29;;;;;;;22.42;5.13;;;4.40;99.90;;;;;;5028457;28;20042;-96
2020/12/21 03:55:59;;;;;;;21.88;5.55;;;4.40;99.90;;;;;;5026962;28;20021;-96
2020/12/21 03:58:25;;;;;;;13.98;4.05;;;4.40;99.90;;;;;;5028235;28;20026;-96
2020/12/21 04:00:54;;;;;;;16.30;5.07;;;4.40;99.90;;;;;;5011668;28;20029;-96
2020/12/21 04:03:20;;;;;;;18.73;4.88;;;4.40;99.90;;;;;;5025602;28;20033;-94
2020/12/21 04:05:45;;;;;;;15.80;5.25;;;4.40;99.90;;;;;;5024101;28;20037;-94
2020/12/21 04:08:13;;;;;;;24.70;5.25;;;4.30;99.90;;;;;;5023327;28;20029;-96
2020/12/21 04:10:40;;;;;;;19.55;6.13;;;4.40;99.90;;;;;;5020170;28;20479;-95
2020/12/21 04:13:06;;;;;;;20.70;5.72;;;4.30;99.90;;;;;;5021115;28;20029;-96
2020/12/21 04:15:31;;;;;;;20.42;5.93;;;4.40;99.90;;;;;;5022532;28;20047;-96
2020/12/21 04:17:57;;;;;;;13.82;6.28;;;4.40;99.90;;;;;;5025859;28;20771;-96
2020/12/21 04:20:23;;;;;;;19.02;6.13;;;4.30;99.90;;;;;;5014841;28;20045;-96
2020/12/21 04:22:49;;;;;;;22.77;7.05;;;4.40;99.90;;;;;;5028949;28;20030;-96
2020/12/21 04:25:18;;;;;;;20.10;7.07;;;4.40;99.90;;;;;;5025591;28;20486;-96
2020/12/21 04:27:49;;;;;;;23.27;6.53;;;4.50;99.90;;;;;;5031984;28;20017;-96
2020/12/21 04:30:15;;;;;;;26.30;7.25;;;4.50;99.90;;;;;;5017621;28;20040;-96
2020/12/21 04:32:40;;;;;;;28.98;6.82;;;4.50;99.90;;;;;;5027520;28;20021;-95
2020/12/21 04:35:06;;;;;;;21.83;6.53;;;4.50;99.90;;;;;;5021170;28;20048;-95
2020/12/21 04:37:33;;;;;;;19.52;6.80;;;4.60;99.90;;;;;;5024049;28;20026;-96
2020/12/21 04:39:59;;;;;;;18.15;6.30;;;4.50;99.90;;;;;;5023292;28;20025;-94
2020/12/21 04:42:25;;;;;;;29.42;6.78;;;4.60;99.90;;;;;;5024122;28;20122;-94
2020/12/21 04:44:51;;;;;;;21.75;6.35;;;4.70;99.90;;;;;;5024904;28;20052;-96
2020/12/21 04:47:18;;;;;;;20.95;6.05;;;4.60;99.90;;;;;;5025246;28;20026;-96
2020/12/21 04:49:44;;;;;;;21.27;5.70;;;4.70;99.90;;;;;;5022729;28;20783;-95
2020/12/21 04:52:11;;;;;;;20.52;5.90;;;4.70;99.90;;;;;;5016074;28;20049;-95
2020/12/21 04:54:38;;;;;;;24.38;5.97;;;4.70;99.90;;;;;;5019648;28;20088;-95
2020/12/21 04:57:09;;;;;;;20.45;6.85;;;4.70;99.90;;;;;;5023128;28;20026;-96
2020/12/21 04:59:42;;;;;;;23.55;5.70;;;4.80;99.90;;;;;;5026118;28;20026;-96
2020/12/21 05:02:16;;;;;;;24.08;6.60;;;4.80;99.90;;;;;;5049620;28;20034;-96
2020/12/21 05:04:59;;;;;;;16.40;5.55;;;4.80;99.90;;;;;;5021944;28;20013;-96
2020/12/21 05:07:42;;;;;;;18.85;5.28;;;4.80;99.90;;;;;;5037142;28;20033;-96
2020/12/21 05:10:11;;;;;;;29.00;6.18;;;4.80;99.90;;;;;;5033338;28;20033;-96
2020/12/21 05:12:38;;;;;;;18.27;5.40;;;4.80;99.90;;;;;;5030174;28;20037;-96
2020/12/21 05:15:16;;;;;;;19.40;5.93;;;4.80;99.90;;;;;;5023547;28;20076;-95
2020/12/21 05:17:45;;;;;;;16.05;5.53;;;4.80;99.90;;;;;;5030617;28;20047;-96
2020/12/21 05:20:12;;;;;;;13.60;5.53;;;4.80;99.90;;;;;;5032245;28;20068;-96
2020/12/21 05:22:38;;;;;;;20.08;6.30;;;4.80;99.90;;;;;;5026449;28;20586;-95
2020/12/21 05:25:09;;;;;;;18.10;5.03;;;4.90;99.90;;;;;;5027399;28;20022;-96
2020/12/21 05:27:41;;;;;;;21.85;6.63;;;4.90;99.90;;;;;;5032499;28;20085;-96
2020/12/21 05:30:11;;;;;;;23.27;7.18;;;4.90;99.90;;;;;;5052080;28;20060;-95
2020/12/21 05:32:38;;;;;;;25.70;6.25;;;4.90;99.90;;;;;;5033420;28;20021;-96
2020/12/21 05:36:01;;;;;;;21.58;7.50;;;5.00;99.90;;;;;;5035955;28;20101;-96
2020/12/21 05:38:37;;;;;;;19.50;6.25;;;4.90;99.90;;;;;;5096826;22;20305;-95
2020/12/21 05:41:12;;;;;;;24.95;8.18;;;5.00;99.90;;;;;;5080906;28;20027;-96
2020/12/21 05:44:12;;;;;;;24.15;6.75;;;5.00;99.90;;;;;;5081069;28;20063;-96
2020/12/21 05:46:41;;;;;;;;;;;5.00;99.90;;;;;;5135970;22;20048;-96
2020/12/21 05:49:12;;;;;;;17.42;6.78;;;5.00;99.90;;;;;;5076500;28;19934;-96
2020/12/21 05:51:51;;;;;;;29.90;8.32;;;5.10;99.90;;;;;;5074660;28;20025;-96
2020/12/21 05:54:21;;;;;;;24.55;7.22;;;5.10;99.90;;;;;;5058642;28;20096;-96
2020/12/21 05:57:17;;;;;;;20.73;7.75;;;5.10;99.90;;;;;;5059854;28;20020;-96
2020/12/21 05:59:47;;;;;;;30.23;9.43;;;5.10;99.90;;;;;;5053553;28;20047;-96
2020/12/21 06:02:13;;;;;;;26.77;8.20;;;5.20;99.90;;;;;;5071372;28;20029;-96
2020/12/21 06:04:49;;;;;;;29.45;8.05;;;5.10;99.90;;;;;;5094036;28;20024;-96
2020/12/21 06:07:24;;;;;;;21.70;7.40;;;5.10;99.90;;;;;;5067908;28;20029;-96
2020/12/21 06:09:51;;;;;;;20.27;7.93;;;5.20;99.90;;;;;;5064418;28;20054;-96
2020/12/21 06:12:22;;;;;;;23.35;8.15;;;5.10;99.90;;;;;;5068738;28;20029;-96
2020/12/21 06:14:50;;;;;;;25.42;7.72;;;5.20;99.90;;;;;;5064719;28;20036;-96
2020/12/21 06:17:16;;;;;;;26.17;8.20;;;5.20;99.90;;;;;;5065817;28;20016;-95
2020/12/21 06:19:42;;;;;;;26.42;7.63;;;5.20;99.90;;;;;;5047548;28;20120;-96
2020/12/21 06:22:22;;;;;;;27.85;8.07;;;5.20;99.90;;;;;;5071223;28;20397;-96
2020/12/21 06:24:48;;;;;;;26.77;10.45;;;5.20;99.90;;;;;;5054822;28;20052;-96
2020/12/21 06:27:17;;;;;;;28.13;7.70;;;5.20;99.90;;;;;;5074390;28;20013;-96
2020/12/21 06:29:45;;;;;;;30.50;8.70;;;5.20;99.90;;;;;;5060364;28;20093;-96
2020/12/21 06:32:14;;;;;;;41.60;9.75;;;5.20;99.90;;;;;;5067819;28;20032;-96
2020/12/21 06:34:42;;;;;;;19.42;7.70;;;5.20;99.90;;;;;;5077584;28;20028;-96
2020/12/21 06:37:16;;;;;;;22.50;7.95;;;5.20;99.90;;;;;;5079640;28;20020;-96
2020/12/21 06:39:42;;;;;;;23.23;8.75;;;5.30;99.90;;;;;;5073777;28;20036;-96
2020/12/21 06:42:13;;;;;;;17.20;7.20;;;5.30;99.90;;;;;;5068064;28;20028;-96
2020/12/21 06:44:40;;;;;;;18.30;7.53;;;5.30;99.90;;;;;;5068279;28;20021;-96
2020/12/21 06:47:11;;;;;;;17.02;7.93;;;5.30;99.90;;;;;;5064351;28;20041;-96
2020/12/21 06:49:37;;;;;;;21.13;7.13;;;5.40;99.90;;;;;;5062167;28;20201;-96
2020/12/21 06:52:03;;;;;;;22.98;6.97;;;5.40;99.90;;;;;;5065530;28;20060;-96
2020/12/21 06:54:30;;;;;;;20.85;7.88;;;5.40;99.90;;;;;;5068401;28;20043;-96
2020/12/21 06:56:57;;;;;;;25.35;8.95;;;5.40;99.90;;;;;;5071598;28;20029;-96
2020/12/21 06:59:26;;;;;;;14.98;6.80;;;5.40;99.90;;;;;;5055125;28;20041;-95
2020/12/21 07:01:55;;;;;;;20.60;7.82;;;5.40;99.90;;;;;;5073867;28;20039;-96
2020/12/21 07:04:32;;;;;;;15.98;6.70;;;5.50;99.90;;;;;;5092972;28;20028;-96
2020/12/21 07:07:01;;;;;;;21.35;7.55;;;5.50;99.90;;;;;;5073786;28;20008;-96
2020/12/21 07:09:32;;;;;;;15.35;6.03;;;5.50;99.90;;;;;;5075325;28;20016;-95
2020/12/21 07:12:08;;;;;;;24.48;6.75;;;5.60;99.90;;;;;;5077768;28;20009;-96
2020/12/21 07:14:36;;;;;;;10.75;4.80;;;5.60;99.90;;;;;;5073568;28;20071;-95
2020/12/21 07:17:16;;;;;;;17.15;5.70;;;5.60;99.90;;;;;;5078312;28;20035;-96
2020/12/21 07:19:46;;;;;;;15.20;5.55;;;5.60;99.90;;;;;;5080495;28;20062;-96
2020/12/21 07:22:13;;;;;;;13.73;5.65;;;5.60;99.90;;;;;;5069596;28;20033;-96
2020/12/21 07:24:45;;;;;;;19.63;5.65;;;5.70;99.90;;;;;;5098669;28;20001;-96
2020/12/21 07:27:11;;;;;;;18.27;6.15;;;5.70;99.90;;;;;;5080569;28;20013;-96
2020/12/21 07:29:41;;;;;;;19.08;5.38;;;5.70;99.90;;;;;;5082425;28;20020;-95
2020/12/21 07:32:09;;;;;;;23.05;6.70;;;5.70;99.90;;;;;;5082454;28;20020;-96
2020/12/21 08:31:52;;;;;;;14.52;6.32;;;6.00;99.90;;;;;;5041644;28;20060;-92
2020/12/21 08:34:18;;;;;;;13.57;7.45;;;6.00;99.90;;;;;;5028995;28;20044;-92
2020/12/21 08:36:44;;;;;;;18.50;7.93;;;6.00;99.90;;;;;;5024012;28;20017;-93
2020/12/21 08:39:15;;;;;;;17.45;7.82;;;6.00;99.90;;;;;;5017977;28;20023;-92
2020/12/21 08:41:53;;;;;;;17.88;7.82;;;6.00;99.90;;;;;;5018276;28;20075;-90
2020/12/21 08:44:20;;;;;;;13.00;6.57;;;6.00;99.90;;;;;;5025160;28;20043;-92
2020/12/21 08:47:00;;;;;;;17.98;7.38;;;6.00;99.90;;;;;;5023547;28;20394;-92
2020/12/21 08:49:28;;;;;;;14.40;7.25;;;6.00;99.90;;;;;;5017822;28;20068;-92
2020/12/21 08:52:04;;;;;;;14.65;7.20;;;6.10;99.90;;;;;;5028686;28;20108;-91
2020/12/21 08:54:30;;;;;;;12.98;6.57;;;6.10;99.90;;;;;;5029864;28;20028;-91
2020/12/21 08:56:58;;;;;;;14.18;7.55;;;6.10;99.90;;;;;;5030889;28;20120;-92
2020/12/21 08:59:25;;;;;;;16.13;7.00;;;6.10;99.90;;;;;;5030591;28;20029;-93
2020/12/21 09:01:51;;;;;;;13.85;6.50;;;6.10;99.90;;;;;;5027417;28;20028;-92
2020/12/21 09:04:16;;;;;;;13.15;6.72;;;6.10;99.90;;;;;;5037601;28;20026;-94
2020/12/21 09:06:42;;;;;;;10.70;5.40;;;6.10;99.90;;;;;;5040017;28;20024;-92
2020/12/21 09:09:09;;;;;;;8.73;5.53;;;6.10;99.90;;;;;;5039990;28;20064;-91
2020/12/21 09:11:35;;;;;;;10.88;6.25;;;6.10;99.90;;;;;;5023065;28;20029;-92
2020/12/21 09:14:00;;;;;;;11.88;5.78;;;6.10;99.90;;;;;;5030692;28;20038;-91
2020/12/21 09:16:28;;;;;;;8.02;4.82;;;6.10;99.90;;;;;;5021147;28;20101;-93
2020/12/21 09:18:55;;;;;;;5.95;4.50;;;6.10;99.90;;;;;;5020861;28;20028;-95
2020/12/21 09:21:28;;;;;;;7.82;4.57;;;6.10;99.90;;;;;;5021177;28;20022;-93
2020/12/21 09:23:56;;;;;;;6.65;4.65;;;6.10;99.90;;;;;;5018641;28;20037;-93
2020/12/21 09:26:22;;;;;;;9.10;5.20;;;6.20;99.90;;;;;;5018284;28;20033;-94
2020/12/21 09:28:49;;;;;;;7.32;4.63;;;6.10;99.90;;;;;;5021034;28;20030;-93
2020/12/21 09:31:17;;;;;;;6.32;4.10;;;6.10;99.90;;;;;;5023076;28;20073;-94
2020/12/21 09:33:43;;;;;;;7.55;4.80;;;6.20;99.90;;;;;;5017589;28;20036;-93
2020/12/21 09:36:10;;;;;;;8.13;4.47;;;6.20;99.90;;;;;;5018224;28;20033;-94
2020/12/21 09:38:37;;;;;;;6.85;4.25;;;6.20;99.90;;;;;;5017907;28;20116;-94
2020/12/21 09:41:03;;;;;;;7.20;3.88;;;6.20;99.90;;;;;;5017682;28;20726;-94
2020/12/21 09:43:29;;;;;;;6.30;3.45;;;6.20;99.90;;;;;;5017169;28;20029;-94
2020/12/21 09:45:55;;;;;;;5.43;3.28;;;6.20;99.90;;;;;;5028951;28;20083;-94
2020/12/21 09:48:20;;;;;;;7.15;3.92;;;6.20;99.90;;;;;;5017745;28;20475;-94
2020/12/21 09:50:46;;;;;;;4.68;3.10;;;6.20;99.90;;;;;;5013266;28;20025;-94
2020/12/21 09:53:12;;;;;;;4.60;3.15;;;6.30;99.90;;;;;;5004304;28;20036;-94
2020/12/21 09:55:38;;;;;;;3.55;2.63;;;6.30;99.90;;;;;;4999019;28;20117;-94
2020/12/21 09:58:07;;;;;;;3.08;2.33;;;6.20;99.90;;;;;;4997043;28;20065;-94
2020/12/21 10:00:32;;;;;;;6.13;2.80;;;6.30;99.90;;;;;;4997278;28;20156;-95
2020/12/21 10:02:58;;;;;;;4.55;2.70;;;6.30;99.90;;;;;;4997387;28;20057;-96
2020/12/21 10:05:24;;;;;;;4.13;2.70;;;6.30;99.90;;;;;;4997590;28;20084;-94
2020/12/21 10:07:49;;;;;;;3.13;2.50;;;6.30;99.90;;;;;;4997392;28;20072;-93
2020/12/21 10:10:15;;;;;;;2.38;2.00;;;6.30;99.90;;;;;;4997417;28;20048;-94
2020/12/21 10:12:41;;;;;;;2.45;2.10;;;6.30;99.90;;;;;;4996584;28;20147;-95
2020/12/21 10:15:06;;;;;;;2.65;1.88;;;6.30;99.90;;;;;;4997001;28;20037;-94
2020/12/21 10:17:34;;;;;;;1.55;1.45;;;6.30;99.90;;;;;;4996928;28;20061;-95
2020/12/21 10:20:00;;;;;;;3.00;2.28;;;6.30;99.90;;;;;;4996879;28;20057;-92
2020/12/21 10:22:25;;;;;;;3.67;2.47;;;6.30;99.90;;;;;;4996610;28;20479;-94
2020/12/21 10:24:51;;;;;;;2.95;2.40;;;6.30;99.90;;;;;;4996741;28;20022;-94
2020/12/21 10:27:17;;;;;;;3.00;1.90;;;6.30;99.90;;;;;;4996400;28;20493;-92
2020/12/21 10:29:42;;;;;;;5.18;1.90;;;6.30;99.90;;;;;;4996114;28;20022;-95
2020/12/21 10:32:08;;;;;;;2.85;2.08;;;6.30;99.90;;;;;;4996623;28;20056;-93
2020/12/21 10:34:34;;;;;;;2.72;1.73;;;6.30;99.90;;;;;;4996698;28;20037;-94
2020/12/21 10:37:00;;;;;;;2.05;1.85;;;6.40;99.90;;;;;;4996355;28;20026;-95
2020/12/21 10:39:26;;;;;;;2.10;1.77;;;6.30;99.90;;;;;;4995913;28;20024;-94
2020/12/21 10:41:52;;;;;;;2.53;2.10;;;6.40;99.90;;;;;;4995720;28;20025;-94
2020/12/21 10:44:18;;;;;;;3.00;2.22;;;6.40;99.90;;;;;;4996374;28;20471;-95
2020/12/21 10:46:44;;;;;;;3.53;2.10;;;6.40;99.90;;;;;;4998122;28;20076;-93
2020/12/21 10:49:10;;;;;;;3.90;2.17;;;6.40;99.90;;;;;;4996222;28;20483;-91
2020/12/21 10:51:36;;;;;;;3.92;1.92;;;6.50;99.90;;;;;;5002451;28;20036;-95
2020/12/21 10:54:02;;;;;;;2.05;1.80;;;6.40;99.90;;;;;;5005588;28;20034;-94
2020/12/21 10:56:29;;;;;;;2.15;1.80;;;6.50;99.90;;;;;;4999120;28;20037;-94
2020/12/21 10:58:55;;;;;;;2.03;1.73;;;6.50;99.90;;;;;;4998818;28;20018;-94
2020/12/21 11:01:21;;;;;;;4.60;2.22;;;6.50;99.90;;;;;;4998584;28;20091;-95
2020/12/21 11:03:47;;;;;;;5.47;2.78;;;6.50;99.90;;;;;;4996549;28;20121;-96
2020/12/21 11:06:19;;;;;;;4.10;2.50;;;6.60;99.90;;;;;;5012366;28;20455;-95
2020/12/21 11:08:45;;;;;;;4.13;2.55;;;6.60;99.90;;;;;;4998536;28;20167;-95
2020/12/21 11:11:11;;;;;;;3.22;1.88;;;6.60;99.90;;;;;;5016266;28;20025;-95
2020/12/21 11:13:41;;;;;;;2.00;1.80;;;6.60;99.90;;;;;;4997676;28;20128;-94
2020/12/21 11:16:09;;;;;;;3.10;2.23;;;6.70;99.90;;;;;;4996011;28;20029;-95
2020/12/21 11:18:34;;;;;;;2.47;1.88;;;6.70;99.90;;;;;;4998354;28;20034;-94
2020/12/21 11:21:00;;;;;;;2.00;1.77;;;6.80;99.90;;;;;;4995315;28;20609;-95
2020/12/21 11:23:26;;;;;;;2.45;2.15;;;6.80;99.90;;;;;;4996907;28;20049;-94
2020/12/21 11:25:51;;;;;;;3.15;2.28;;;6.80;99.90;;;;;;4996672;28;20029;-95
2020/12/21 11:28:17;;;;;;;5.10;2.83;;;6.80;99.90;;;;;;4995728;28;20030;-94
2020/12/21 11:30:43;;;;;;;4.68;2.38;;;6.90;99.90;;;;;;4996865;28;20045;-93
2020/12/21 11:33:08;;;;;;;2.05;1.75;;;6.90;99.90;;;;;;4999512;28;20112;-95
2020/12/21 11:35:34;;;;;;;3.05;1.45;;;6.90;99.90;;;;;;4998423;28;20068;-96
2020/12/21 11:38:00;;;;;;;2.58;1.80;;;6.90;99.90;;;;;;4998522;28;20604;-92
2020/12/21 11:40:25;;;;;;;5.13;2.03;;;7.00;99.90;;;;;;4997076;28;20034;-95
2020/12/21 11:42:51;;;;;;;3.35;2.28;;;7.00;99.90;;;;;;4995486;28;20029;-93
2020/12/21 11:45:17;;;;;;;3.47;2.35;;;7.10;99.90;;;;;;4995226;28;20037;-94
2020/12/21 11:47:43;;;;;;;3.40;1.80;;;7.10;99.90;;;;;;4995365;28;20026;-93
2020/12/21 11:50:08;;;;;;;4.10;1.80;;;7.10;99.90;;;;;;5007680;28;21583;-94
2020/12/21 11:52:34;;;;;;;2.58;1.92;;;7.10;99.90;;;;;;4995291;28;20022;-92
2020/12/21 11:54:59;;;;;;;3.00;2.10;;;7.10;99.90;;;;;;4995796;28;20403;-93
2020/12/21 11:57:27;;;;;;;2.58;1.80;;;7.20;99.90;;;;;;5030762;22;20140;-93
2020/12/21 11:59:54;;;;;;;3.10;2.40;;;7.20;99.90;;;;;;5004313;28;20117;-92
2020/12/21 12:02:20;;;;;;;3.10;2.45;;;7.20;99.90;;;;;;5005221;28;20124;-94
2020/12/21 12:04:46;;;;;;;2.50;1.80;;;7.30;99.90;;;;;;5005088;28;20105;-94
2020/12/21 12:07:11;;;;;;;2.50;2.30;;;7.30;99.90;;;;;;5008882;28;20117;-94
2020/12/21 12:09:37;;;;;;;5.05;3.10;;;7.40;99.90;;;;;;5007648;28;20014;-95
2020/12/21 12:12:04;;;;;;;15.98;8.57;;;7.40;99.90;;;;;;5007033;28;20129;-95
2020/12/21 12:14:30;;;;;;;10.10;5.88;;;7.40;99.90;;;;;;5004255;28;20034;-94
2020/12/21 12:16:57;;;;;;;5.85;4.07;;;7.40;99.90;;;;;;5005702;28;20493;-92
2020/12/21 12:19:23;;;;;;;5.63;3.33;;;7.50;99.90;;;;;;5004689;28;20106;-95
2020/12/21 12:21:49;;;;;;;3.65;2.88;;;7.50;99.90;;;;;;5006978;28;20025;-95
2020/12/21 12:24:15;;;;;;;3.65;2.78;;;7.50;99.90;;;;;;5004254;28;20484;-94
2020/12/21 12:26:42;;;;;;;3.20;2.30;;;7.60;99.90;;;;;;5004257;28;20014;-95
2020/12/21 12:29:07;;;;;;;2.40;1.98;;;7.60;99.90;;;;;;5016920;28;20086;-94
2020/12/21 12:31:33;;;;;;;3.47;2.58;;;7.70;99.90;;;;;;5021300;28;20037;-93
2020/12/21 12:34:00;;;;;;;5.57;2.80;;;7.70;99.90;;;;;;5029128;28;20045;-94
2020/12/21 12:36:27;;;;;;;5.18;2.90;;;7.70;99.90;;;;;;5027204;28;20022;-93
2020/12/21 12:38:53;;;;;;;4.75;2.53;;;7.70;99.90;;;;;;5014525;28;20122;-94
2020/12/21 12:41:19;;;;;;;4.18;3.40;;;7.70;99.90;;;;;;5029396;28;20033;-94
2020/12/21 13:04:02;;;;;;;19.77;8.60;;;7.90;99.90;;;;;;5710103;22;20134;-93
2020/12/21 13:06:27;;;;;;;8.13;4.40;;;8.00;99.90;;;;;;5072220;28;20493;-94
2020/12/21 13:08:53;;;;;;;5.82;3.90;;;8.10;99.90;;;;;;5072465;28;20028;-93
2020/12/21 13:11:19;;;;;;;6.88;4.38;;;8.10;99.90;;;;;;5070707;28;20021;-95
2020/12/21 13:13:44;;;;;;;8.73;4.93;;;8.30;99.90;;;;;;5066852;28;20025;-94
2020/12/21 13:16:10;;;;;;;5.63;3.60;;;8.40;99.90;;;;;;5068384;28;20024;-94
2020/12/21 13:18:36;;;;;;;6.60;5.15;;;8.50;99.90;;;;;;5068404;28;20497;-94
2020/12/21 13:21:01;;;;;;;8.45;5.63;;;8.50;99.90;;;;;;5066753;28;20032;-94
2020/12/21 13:23:27;;;;;;;8.32;5.55;;;8.60;99.90;;;;;;5066202;28;20024;-94
2020/12/21 13:25:52;;;;;;;8.27;6.43;;;8.70;99.90;;;;;;5066270;28;20028;-93
2020/12/21 13:28:18;;;;;;;8.38;5.45;;;8.70;99.90;;;;;;5067971;28;20375;-94
2020/12/21 13:30:44;;;;;;;13.40;8.15;;;8.70;99.90;;;;;;5066426;28;20123;-93
2020/12/21 13:33:09;;;;;;;19.73;12.20;;;8.80;99.90;;;;;;5066560;28;20021;-94
2020/12/21 13:35:35;;;;;;;22.55;14.50;;;8.80;99.90;;;;;;5068552;28;20386;-94
2020/12/21 13:38:01;;;;;;;17.58;10.75;;;8.80;99.90;;;;;;5065388;28;20056;-94
2020/12/21 13:40:26;;;;;;;18.48;11.35;;;8.80;99.90;;;;;;5067594;28;20489;-93
2020/12/21 13:42:52;;;;;;;15.48;8.82;;;8.70;99.90;;;;;;5065832;28;20032;-93
2020/12/21 13:45:18;;;;;;;13.35;8.90;;;8.70;99.90;;;;;;5063025;28;20021;-94
2020/12/21 13:47:43;;;;;;;14.43;8.57;;;8.70;99.90;;;;;;5065791;28;20036;-94
2020/12/21 13:50:09;;;;;;;16.23;9.18;;;8.70;99.90;;;;;;5065871;28;20533;-93
2020/12/21 13:52:35;;;;;;;14.32;8.63;;;8.70;99.90;;;;;;5065053;28;20020;-94
2020/12/21 13:55:01;;;;;;;11.02;7.35;;;8.70;99.90;;;;;;5062571;28;20583;-94
2020/12/21 13:57:26;;;;;;;8.70;5.10;;;8.70;99.90;;;;;;5067083;28;20017;-93
2020/12/21 13:59:52;;;;;;;9.68;5.82;;;8.70;99.90;;;;;;5065650;28;20048;-93
2020/12/21 14:02:18;;;;;;;7.70;4.78;;;8.70;99.90;;;;;;5066942;28;20025;-94
2020/12/21 14:04:46;;;;;;;6.85;4.75;;;8.70;99.90;;;;;;5066623;28;20098;-94
2020/12/21 14:07:12;;;;;;;6.43;3.97;;;8.70;99.90;;;;;;5068464;28;20111;-93
2020/12/21 14:09:37;;;;;;;6.07;4.03;;;8.70;99.90;;;;;;5063544;28;20024;-94
2020/12/21 14:12:04;;;;;;;4.93;3.30;;;8.70;99.90;;;;;;5063362;28;20026;-94